Time;durP1;ratioP1;P1;durP2;ratioP2;P2;SDS_P1;SDS_P2;PMS_P1;PMS_P2;Temp;Humidity;BMP_temperature;BMP_pressure;BME280_temperature;BME280_humidity;BME280_pressure;Samples;Min_cycle;Max_cycle;Signal;HPM_P1;HPM_P2
2022/03/31 00:00:43;;;;;;;11.90;4.57;;;12.20;83.10;;;;;;5035430;28;20530;-75
2022/03/31 00:03:15;;;;;;;14.80;5.13;;;12.20;83.60;;;;;;5035157;28;20049;-75
2022/03/31 00:05:44;;;;;;;18.60;5.30;;;12.20;83.50;;;;;;5037681;28;20059;-75
2022/03/31 00:08:13;;;;;;;14.30;5.18;;;12.20;83.70;;;;;;5018244;28;20048;-75
2022/03/31 00:10:42;;;;;;;11.90;5.13;;;12.20;83.40;;;;;;5034115;28;20041;-75
2022/03/31 00:13:13;;;;;;;12.68;5.07;;;12.20;83.60;;;;;;5032859;28;20189;-75
2022/03/31 00:15:40;;;;;;;11.02;5.32;;;12.20;83.40;;;;;;5034090;28;20037;-75
2022/03/31 00:18:09;;;;;;;11.00;4.20;;;12.20;83.30;;;;;;5033402;28;20048;-75
2022/03/31 00:20:37;;;;;;;7.82;4.13;;;12.30;83.20;;;;;;5034105;28;20382;-75
2022/03/31 00:23:05;;;;;;;12.40;4.97;;;12.30;83.10;;;;;;5036402;28;20073;-75
2022/03/31 00:25:33;;;;;;;10.00;5.05;;;12.30;83.20;;;;;;5036178;28;20689;-75
2022/03/31 00:28:01;;;;;;;10.95;4.72;;;12.30;83.10;;;;;;5035734;28;20057;-75
2022/03/31 00:30:30;;;;;;;16.88;4.70;;;12.30;83.10;;;;;;5039693;28;20037;-75
2022/03/31 00:32:57;;;;;;;15.57;4.55;;;12.30;83.10;;;;;;5035024;28;20064;-75
2022/03/31 00:35:24;;;;;;;13.88;4.85;;;12.30;83.10;;;;;;5033701;28;20091;-75
2022/03/31 00:37:52;;;;;;;14.07;5.07;;;12.20;83.50;;;;;;5038915;28;20103;-75
2022/03/31 00:40:21;;;;;;;11.85;4.85;;;12.20;83.50;;;;;;5036573;28;20507;-75
2022/03/31 00:42:55;;;;;;;14.25;5.18;;;12.20;84.20;;;;;;5033891;28;20052;-75
2022/03/31 00:45:46;;;;;;;13.35;5.15;;;12.20;84.40;;;;;;5040861;28;20041;-75
2022/03/31 00:48:16;;;;;;;17.42;5.35;;;12.20;84.90;;;;;;5035081;28;20601;-75
2022/03/31 00:50:43;;;;;;;12.32;5.00;;;12.20;84.70;;;;;;5040919;28;20052;-75
2022/03/31 00:53:11;;;;;;;11.35;4.85;;;12.20;84.90;;;;;;5034747;28;21801;-75
2022/03/31 00:55:58;;;;;;;11.98;4.97;;;12.10;85.10;;;;;;5019770;28;20049;-75
2022/03/31 00:58:25;;;;;;;13.68;5.57;;;12.10;85.30;;;;;;5031436;28;20045;-75
2022/03/31 01:00:53;;;;;;;12.75;5.85;;;12.10;85.80;;;;;;5037194;28;20103;-75
2022/03/31 01:03:21;;;;;;;17.95;6.28;;;12.10;86.00;;;;;;5036130;28;20045;-75
2022/03/31 01:05:48;;;;;;;13.68;5.63;;;12.10;86.40;;;;;;5050623;28;20041;-75
2022/03/31 01:08:15;;;;;;;12.68;5.93;;;12.10;86.50;;;;;;5032116;28;20139;-75
2022/03/31 01:10:42;;;;;;;15.88;6.65;;;12.10;86.40;;;;;;5033874;28;20036;-75
2022/03/31 01:13:09;;;;;;;17.20;6.88;;;12.10;86.80;;;;;;5039279;28;20045;-75
2022/03/31 01:15:37;;;;;;;15.93;5.72;;;12.10;87.10;;;;;;5047834;28;20049;-75
2022/03/31 01:18:05;;;;;;;13.40;5.88;;;12.00;87.60;;;;;;5033553;28;20503;-75
2022/03/31 01:20:33;;;;;;;12.43;5.75;;;12.00;88.10;;;;;;5017389;28;20045;-75
2022/03/31 01:23:01;;;;;;;17.77;6.68;;;12.00;88.00;;;;;;5034444;28;20045;-75
2022/03/31 01:25:28;;;;;;;12.52;5.90;;;12.00;87.90;;;;;;5035423;28;20056;-75
2022/03/31 01:27:56;;;;;;;16.92;6.63;;;12.00;88.10;;;;;;5028912;28;20376;-75
2022/03/31 01:30:23;;;;;;;19.98;6.72;;;12.00;88.60;;;;;;5018711;28;20495;-75
2022/03/31 01:32:52;;;;;;;14.93;7.07;;;12.00;88.10;;;;;;5038834;28;20041;-75
2022/03/31 01:35:19;;;;;;;13.50;6.82;;;11.90;88.70;;;;;;5033787;28;20063;-75
2022/03/31 01:37:47;;;;;;;14.50;6.43;;;11.90;89.10;;;;;;5035877;28;20503;-75
2022/03/31 01:40:14;;;;;;;13.82;6.47;;;11.90;89.30;;;;;;5030609;28;20908;-75
2022/03/31 01:42:42;;;;;;;18.15;6.60;;;11.90;89.30;;;;;;5031739;28;20048;-75
2022/03/31 01:45:12;;;;;;;17.60;6.72;;;11.90;89.20;;;;;;5035567;28;20037;-75
2022/03/31 01:47:39;;;;;;;13.32;6.35;;;11.90;89.10;;;;;;5034077;28;20068;-75
2022/03/31 01:50:09;;;;;;;10.25;6.00;;;12.00;89.10;;;;;;5034325;28;20037;-75
2022/03/31 01:52:37;;;;;;;12.98;6.05;;;11.90;89.00;;;;;;5035066;28;20091;-75
2022/03/31 01:55:05;;;;;;;13.75;6.95;;;12.00;89.50;;;;;;5015404;28;20102;-75
2022/03/31 01:57:32;;;;;;;14.88;6.80;;;11.90;89.30;;;;;;5037539;28;20048;-75
2022/03/31 02:00:02;;;;;;;19.88;6.78;;;12.00;89.30;;;;;;5036094;28;20068;-75
2022/03/31 02:02:39;;;;;;;16.40;7.32;;;11.90;89.50;;;;;;5038979;28;20068;-76
2022/03/31 02:05:07;;;;;;;15.20;6.60;;;12.00;89.40;;;;;;5033923;28;20040;-75
2022/03/31 02:07:36;;;;;;;16.80;6.30;;;11.90;89.60;;;;;;5031532;28;20400;-75
2022/03/31 02:10:08;;;;;;;13.65;6.28;;;11.90;89.50;;;;;;5033910;28;20094;-75
2022/03/31 02:12:35;;;;;;;19.15;6.47;;;11.90;89.90;;;;;;5035238;28;20521;-75
2022/03/31 02:15:03;;;;;;;15.15;6.75;;;11.90;90.00;;;;;;5049521;28;20091;-75
2022/03/31 02:17:31;;;;;;;16.27;6.63;;;11.90;90.10;;;;;;5016905;28;20523;-74
2022/03/31 02:19:58;;;;;;;14.90;7.32;;;11.90;90.00;;;;;;5033792;28;20048;-75
2022/03/31 02:22:25;;;;;;;14.68;7.07;;;11.90;90.20;;;;;;5032233;28;20507;-76
2022/03/31 02:24:52;;;;;;;16.23;6.63;;;11.80;90.40;;;;;;5035420;28;20037;-75
2022/03/31 02:27:19;;;;;;;13.98;7.13;;;11.80;90.30;;;;;;5034305;28;20666;-75
2022/03/31 02:29:46;;;;;;;16.08;7.18;;;11.80;90.40;;;;;;5034052;28;20485;-75
2022/03/31 02:32:13;;;;;;;16.08;6.32;;;11.70;90.60;;;;;;5033463;28;20041;-75
2022/03/31 02:34:40;;;;;;;18.50;7.43;;;11.70;90.40;;;;;;5032198;28;20052;-75
2022/03/31 02:37:07;;;;;;;19.63;7.90;;;11.70;90.60;;;;;;5037732;28;20189;-74
2022/03/31 02:39:34;;;;;;;18.90;8.30;;;11.70;90.50;;;;;;5015980;28;20099;-74
2022/03/31 02:42:01;;;;;;;15.20;6.90;;;11.70;90.30;;;;;;5035569;28;20052;-74
2022/03/31 02:44:28;;;;;;;13.68;7.47;;;11.70;90.20;;;;;;5034868;28;20778;-75
2022/03/31 02:46:55;;;;;;;21.23;8.60;;;11.70;90.30;;;;;;5035251;28;20507;-75
2022/03/31 02:49:23;;;;;;;18.20;7.60;;;11.70;90.50;;;;;;5032234;28;20048;-75
2022/03/31 02:51:50;;;;;;;20.42;8.05;;;11.70;90.40;;;;;;5034487;28;20069;-75
2022/03/31 02:57:02;;;;;;;22.38;8.02;;;11.70;90.50;;;;;;5032324;28;20218;-75
2022/03/31 02:59:30;;;;;;;17.15;8.07;;;11.70;90.60;;;;;;5031844;28;20095;-75
2022/03/31 03:01:58;;;;;;;19.67;8.80;;;11.70;90.50;;;;;;5029917;28;20052;-75
2022/03/31 03:04:27;;;;;;;14.38;7.63;;;11.70;90.60;;;;;;5038429;28;20036;-75
2022/03/31 03:06:54;;;;;;;18.20;8.40;;;11.60;90.60;;;;;;5050517;28;20763;-75
2022/03/31 03:09:21;;;;;;;16.08;7.80;;;11.60;90.80;;;;;;5036613;28;20095;-75
2022/03/31 03:11:49;;;;;;;14.88;7.05;;;11.60;90.70;;;;;;5032742;28;20448;-75
2022/03/31 03:14:16;;;;;;;17.75;7.93;;;11.60;90.70;;;;;;5022494;28;20049;-75
2022/03/31 03:16:44;;;;;;;16.77;8.85;;;11.60;90.70;;;;;;5028540;28;20620;-75
2022/03/31 03:19:12;;;;;;;19.88;8.18;;;11.60;90.80;;;;;;5034489;28;20143;-75
2022/03/31 03:21:40;;;;;;;16.58;8.82;;;11.60;90.70;;;;;;5032264;28;20053;-75
2022/03/31 03:24:07;;;;;;;19.95;8.70;;;11.60;90.80;;;;;;5030994;28;20041;-75
2022/03/31 03:26:35;;;;;;;19.10;8.20;;;11.60;90.80;;;;;;5033364;28;20052;-75
2022/03/31 03:29:02;;;;;;;19.15;8.68;;;11.60;90.80;;;;;;5030935;28;20037;-75
2022/03/31 03:31:29;;;;;;;18.02;8.27;;;11.60;90.90;;;;;;5037136;28;20364;-75
2022/03/31 03:33:56;;;;;;;17.58;7.97;;;11.60;90.90;;;;;;5037567;28;20582;-75
2022/03/31 03:36:23;;;;;;;22.42;8.23;;;11.50;90.90;;;;;;5034681;28;20540;-76
2022/03/31 03:38:50;;;;;;;16.98;7.85;;;11.50;91.00;;;;;;5036641;28;20049;-75
2022/03/31 03:41:17;;;;;;;21.52;8.30;;;11.50;90.70;;;;;;5037066;28;20049;-75
2022/03/31 03:43:44;;;;;;;16.92;8.77;;;11.50;90.70;;;;;;5037262;28;20052;-75
2022/03/31 03:46:11;;;;;;;19.85;9.55;;;11.40;90.90;;;;;;5042325;28;20099;-75
2022/03/31 03:48:38;;;;;;;17.92;8.15;;;11.40;90.70;;;;;;5041589;28;20519;-75
2022/03/31 03:51:06;;;;;;;19.80;9.15;;;11.40;90.80;;;;;;5040463;28;20131;-75
2022/03/31 03:53:33;;;;;;;14.68;8.40;;;11.40;90.90;;;;;;5039858;28;20037;-75
2022/03/31 03:56:00;;;;;;;19.85;9.15;;;11.40;90.80;;;;;;5035771;28;20041;-75
2022/03/31 03:58:27;;;;;;;21.70;8.65;;;11.40;90.70;;;;;;5035636;28;20107;-75
2022/03/31 04:00:54;;;;;;;20.58;9.20;;;11.40;90.80;;;;;;5037739;28;20057;-75
2022/03/31 04:03:21;;;;;;;18.73;9.40;;;11.40;90.70;;;;;;5037142;28;20037;-75
2022/03/31 04:05:50;;;;;;;19.17;8.90;;;11.30;90.50;;;;;;5034387;28;20079;-75
2022/03/31 04:08:17;;;;;;;21.15;8.40;;;11.40;90.60;;;;;;5017008;28;20045;-75
2022/03/31 04:10:44;;;;;;;14.70;8.00;;;11.40;90.60;;;;;;5034219;28;20040;-75
2022/03/31 04:13:11;;;;;;;16.30;9.30;;;11.30;90.60;;;;;;5037543;28;20044;-75
2022/03/31 04:15:38;;;;;;;18.75;8.82;;;11.40;90.40;;;;;;5036014;28;20041;-75
2022/03/31 04:18:07;;;;;;;19.10;8.38;;;11.30;90.50;;;;;;5034214;28;20102;-75
2022/03/31 04:20:36;;;;;;;13.30;7.53;;;11.40;90.40;;;;;;5038629;28;20069;-75
2022/03/31 04:23:03;;;;;;;18.10;8.35;;;11.30;90.30;;;;;;5036520;28;20053;-75
2022/03/31 04:25:30;;;;;;;19.17;9.05;;;11.30;90.30;;;;;;5038611;28;20033;-75
2022/03/31 04:27:58;;;;;;;15.05;7.85;;;11.30;90.20;;;;;;5033731;28;20091;-75
2022/03/31 04:30:26;;;;;;;20.52;8.63;;;11.30;90.40;;;;;;5039857;28;20114;-75
2022/03/31 04:32:53;;;;;;;19.08;8.77;;;11.30;90.50;;;;;;5036438;28;20132;-75
2022/03/31 04:35:21;;;;;;;17.05;8.55;;;11.40;90.30;;;;;;5034201;28;20068;-75
2022/03/31 04:37:48;;;;;;;19.52;8.43;;;11.40;90.30;;;;;;5034433;28;20055;-74
2022/03/31 04:40:15;;;;;;;19.85;8.75;;;11.40;90.30;;;;;;5012226;28;20053;-75
2022/03/31 04:42:43;;;;;;;19.42;8.30;;;11.40;90.30;;;;;;5010210;28;20048;-75
2022/03/31 04:45:10;;;;;;;16.55;9.30;;;11.40;90.50;;;;;;5034593;28;20056;-75
2022/03/31 04:47:37;;;;;;;19.98;8.38;;;11.30;90.90;;;;;;5035356;28;20043;-75
2022/03/31 04:50:11;;;;;;;21.25;9.77;;;11.40;90.70;;;;;;5033490;28;20049;-75
2022/03/31 04:52:38;;;;;;;26.73;9.27;;;11.30;90.80;;;;;;5037813;28;20116;-75
2022/03/31 04:55:06;;;;;;;22.88;10.45;;;11.30;91.60;;;;;;5033973;28;20045;-75
2022/03/31 04:57:33;;;;;;;19.70;9.80;;;11.30;91.80;;;;;;5033637;28;20045;-75
2022/03/31 05:00:00;;;;;;;24.40;11.98;;;11.30;92.00;;;;;;5035702;28;20453;-75
2022/03/31 05:02:27;;;;;;;27.45;12.20;;;11.40;92.20;;;;;;5002229;28;20060;-75
2022/03/31 05:04:54;;;;;;;26.17;11.95;;;11.40;92.90;;;;;;4989260;28;20128;-75
2022/03/31 05:07:22;;;;;;;18.27;10.35;;;11.40;93.40;;;;;;4988878;28;20727;-75
2022/03/31 05:09:49;;;;;;;21.17;10.73;;;11.30;93.80;;;;;;4987471;28;20088;-75
2022/03/31 05:12:17;;;;;;;20.52;10.40;;;11.30;94.60;;;;;;4980095;28;20361;-74
2022/03/31 05:14:44;;;;;;;21.58;11.13;;;11.30;95.60;;;;;;4989894;28;20419;-75
2022/03/31 05:17:11;;;;;;;21.85;11.43;;;11.30;96.70;;;;;;4987359;28;20142;-75
2022/03/31 05:19:38;;;;;;;18.50;11.88;;;11.30;97.00;;;;;;4991750;28;22422;-75
2022/03/31 05:22:06;;;;;;;26.30;14.27;;;11.20;98.10;;;;;;4990014;28;20515;-75
2022/03/31 05:24:33;;;;;;;32.95;16.92;;;11.30;97.80;;;;;;4988917;28;20056;-75
2022/03/31 05:27:00;;;;;;;28.70;16.67;;;11.30;98.30;;;;;;4986585;28;22108;-75
2022/03/31 05:29:27;;;;;;;28.45;15.95;;;11.30;98.90;;;;;;4988849;28;20080;-75
2022/03/31 05:31:57;;;;;;;26.73;13.40;;;11.30;99.60;;;;;;5003063;28;20207;-75
2022/03/31 05:34:24;;;;;;;23.02;11.73;;;11.20;99.90;;;;;;4987685;28;20087;-75
2022/03/31 05:36:51;;;;;;;27.20;11.30;;;11.30;99.90;;;;;;4987640;28;20168;-76
2022/03/31 05:39:18;;;;;;;23.52;11.80;;;11.30;99.90;;;;;;4987181;28;20182;-75
2022/03/31 05:41:45;;;;;;;23.50;10.98;;;11.30;99.90;;;;;;4988154;28;20597;-75
2022/03/31 05:44:12;;;;;;;27.95;11.05;;;11.30;99.90;;;;;;4990356;28;20761;-75
2022/03/31 05:46:40;;;;;;;25.42;11.60;;;11.20;99.90;;;;;;4987179;28;20072;-75
2022/03/31 05:49:07;;;;;;;20.67;10.85;;;11.20;99.90;;;;;;4973372;28;20087;-75
2022/03/31 05:51:34;;;;;;;24.88;11.32;;;11.20;99.90;;;;;;4990866;28;20536;-76
2022/03/31 05:54:03;;;;;;;28.75;11.68;;;11.30;99.80;;;;;;4991906;28;20048;-76
2022/03/31 05:56:30;;;;;;;23.52;12.70;;;11.20;99.90;;;;;;4992637;28;20045;-75
2022/03/31 05:58:57;;;;;;;34.65;19.05;;;11.20;99.90;;;;;;4995270;28;20078;-75
2022/03/31 06:01:24;;;;;;;41.10;21.55;;;11.30;99.90;;;;;;4985294;28;20053;-76
2022/03/31 06:03:52;;;;;;;32.17;14.85;;;11.30;99.90;;;;;;4995294;28;20423;-75
2022/03/31 06:06:19;;;;;;;26.25;13.32;;;11.20;99.20;;;;;;5002471;28;20434;-77
2022/03/31 06:08:47;;;;;;;23.35;12.43;;;11.20;98.80;;;;;;4987519;28;20049;-75
2022/03/31 06:11:14;;;;;;;18.90;10.93;;;11.10;98.00;;;;;;4987883;28;21900;-75
2022/03/31 06:13:41;;;;;;;20.02;10.07;;;11.10;97.60;;;;;;4989071;28;20526;-76
2022/03/31 06:16:09;;;;;;;31.42;11.73;;;11.10;97.10;;;;;;4988998;28;20049;-74
2022/03/31 06:18:37;;;;;;;19.90;10.93;;;11.10;97.20;;;;;;4989096;28;20045;-75
2022/03/31 06:21:04;;;;;;;19.77;10.82;;;11.20;97.30;;;;;;4992244;28;20057;-75
2022/03/31 06:23:31;;;;;;;21.13;11.48;;;11.20;97.70;;;;;;5003688;28;20057;-77
2022/03/31 06:25:58;;;;;;;23.85;11.80;;;11.20;97.90;;;;;;4972293;28;20643;-75
2022/03/31 06:28:28;;;;;;;28.20;12.32;;;11.20;98.10;;;;;;4989250;28;20155;-75
2022/03/31 06:30:56;;;;;;;27.85;12.15;;;11.30;97.60;;;;;;4986902;28;20104;-75
2022/03/31 06:33:23;;;;;;;39.13;15.05;;;11.20;97.50;;;;;;4989500;28;20789;-76
2022/03/31 06:35:50;;;;;;;33.97;12.95;;;11.10;97.10;;;;;;4984998;28;20053;-75
2022/03/31 06:38:17;;;;;;;28.42;11.95;;;11.20;98.20;;;;;;4987894;28;20087;-75
2022/03/31 06:41:06;;;;;;;28.85;12.57;;;11.10;98.80;;;;;;4983381;28;20140;-75
2022/03/31 06:43:31;;;;;;;30.05;14.15;;;11.20;99.10;;;;;;4986200;28;20045;-75
2022/03/31 06:45:59;;;;;;;30.25;15.52;;;11.20;99.90;;;;;;4986965;28;20033;-75
2022/03/31 06:48:26;;;;;;;33.28;13.18;;;11.20;99.90;;;;;;4988734;28;20744;-74
2022/03/31 06:50:53;;;;;;;26.45;11.93;;;11.10;99.90;;;;;;4984732;28;20338;-74
2022/03/31 06:53:20;;;;;;;31.45;12.32;;;11.20;99.90;;;;;;4985991;28;20722;-74
2022/03/31 06:55:47;;;;;;;31.10;14.95;;;11.20;99.90;;;;;;4984752;28;20591;-73
2022/03/31 06:58:15;;;;;;;33.38;13.48;;;11.10;99.90;;;;;;4986118;28;20056;-73
2022/03/31 07:00:42;;;;;;;32.47;15.75;;;11.20;99.90;;;;;;4986442;28;22304;-74
2022/03/31 07:03:09;;;;;;;39.47;16.15;;;11.20;99.90;;;;;;4985131;28;20123;-73
2022/03/31 07:05:38;;;;;;;37.45;17.02;;;11.10;99.90;;;;;;5002680;28;20056;-73
2022/03/31 07:08:05;;;;;;;43.25;18.48;;;11.20;99.90;;;;;;4988861;28;20914;-72
2022/03/31 07:10:33;;;;;;;42.13;17.13;;;11.10;99.90;;;;;;4995894;28;20379;-72
2022/03/31 07:13:00;;;;;;;35.00;14.80;;;11.20;99.90;;;;;;4990202;28;20309;-72
2022/03/31 07:15:28;;;;;;;31.13;15.35;;;11.10;99.90;;;;;;4988269;28;22080;-72
2022/03/31 07:17:55;;;;;;;30.27;13.10;;;11.10;99.90;;;;;;4985689;28;20262;-72
2022/03/31 07:20:23;;;;;;;22.92;12.07;;;11.10;99.90;;;;;;4993923;28;20781;-71
2022/03/31 07:22:50;;;;;;;25.65;12.27;;;11.10;99.90;;;;;;4988238;28;20127;-71
2022/03/31 07:25:17;;;;;;;23.30;12.85;;;11.00;99.90;;;;;;4991941;28;20163;-71
2022/03/31 07:27:49;;;;;;;25.08;13.82;;;11.10;99.90;;;;;;4987951;28;20511;-71
2022/03/31 07:30:18;;;;;;;26.10;12.97;;;11.10;99.90;;;;;;4990385;28;20045;-71
2022/03/31 07:33:05;;;;;;;27.92;13.25;;;11.10;99.90;;;;;;4986702;28;20041;-71
2022/03/31 07:35:37;;;;;;;28.13;13.18;;;11.10;99.90;;;;;;4972072;28;22298;-71
2022/03/31 07:38:07;;;;;;;30.25;14.43;;;11.20;99.90;;;;;;4985032;28;20132;-71
2022/03/31 07:40:37;;;;;;;26.58;14.35;;;11.20;99.90;;;;;;4990096;28;20053;-72
2022/03/31 07:43:05;;;;;;;31.42;14.82;;;11.20;99.90;;;;;;4986371;28;20049;-73
2022/03/31 07:45:34;;;;;;;35.63;17.25;;;11.20;99.90;;;;;;4989098;28;20038;-72
2022/03/31 07:48:03;;;;;;;27.38;13.93;;;11.30;99.90;;;;;;4992825;28;20842;-72
2022/03/31 07:50:30;;;;;;;27.98;12.90;;;11.30;99.90;;;;;;4988872;28;20496;-72
2022/03/31 07:52:58;;;;;;;24.50;13.13;;;11.20;99.90;;;;;;4990578;28;20042;-71
2022/03/31 07:55:25;;;;;;;27.80;12.85;;;11.30;99.90;;;;;;4988807;28;20445;-71
2022/03/31 07:57:53;;;;;;;23.10;12.05;;;11.40;99.90;;;;;;4973893;28;20057;-72
2022/03/31 08:00:21;;;;;;;23.33;12.27;;;11.30;99.90;;;;;;4986487;28;20533;-70
2022/03/31 08:02:50;;;;;;;24.90;12.65;;;11.40;99.90;;;;;;4989135;28;20678;-72
2022/03/31 08:05:23;;;;;;;23.65;11.98;;;11.40;99.90;;;;;;5003979;28;20053;-71
2022/03/31 08:07:51;;;;;;;26.95;13.32;;;11.40;99.90;;;;;;4990192;28;22027;-73
2022/03/31 08:10:19;;;;;;;30.38;13.68;;;11.40;99.90;;;;;;4988105;28;20041;-71
2022/03/31 08:12:47;;;;;;;24.15;12.70;;;11.40;99.90;;;;;;4985136;28;20045;-71
2022/03/31 08:15:16;;;;;;;24.38;12.48;;;11.50;99.90;;;;;;4986351;28;22011;-72
2022/03/31 08:17:46;;;;;;;24.67;13.02;;;11.50;99.90;;;;;;4988663;28;20049;-72
2022/03/31 08:20:15;;;;;;;27.27;12.13;;;11.50;99.90;;;;;;4995686;28;20827;-71
2022/03/31 08:22:43;;;;;;;24.42;12.15;;;11.40;99.90;;;;;;4980080;28;20739;-71
2022/03/31 08:25:11;;;;;;;26.92;11.88;;;11.40;99.90;;;;;;4988654;28;20056;-72
2022/03/31 08:27:39;;;;;;;24.30;12.52;;;11.50;99.90;;;;;;4988781;28;20187;-72
2022/03/31 08:30:09;;;;;;;21.20;10.48;;;11.60;99.90;;;;;;4995143;28;22061;-72
2022/03/31 08:32:39;;;;;;;31.60;11.05;;;11.50;99.90;;;;;;5000898;28;20539;-72
2022/03/31 08:35:08;;;;;;;23.70;12.30;;;11.50;99.90;;;;;;5006025;28;20061;-72
2022/03/31 08:37:36;;;;;;;21.35;10.75;;;11.40;99.90;;;;;;4992520;28;20054;-72
2022/03/31 08:40:06;;;;;;;26.42;12.32;;;11.50;99.90;;;;;;4987155;28;20914;-72
2022/03/31 08:42:33;;;;;;;27.10;12.18;;;11.50;99.90;;;;;;4992959;28;20095;-72
2022/03/31 08:45:01;;;;;;;25.67;12.82;;;11.60;99.90;;;;;;4973071;28;20099;-72
2022/03/31 08:47:28;;;;;;;22.90;12.80;;;11.60;99.90;;;;;;4988525;28;20136;-72
2022/03/31 08:50:15;;;;;;;27.13;12.25;;;11.60;99.90;;;;;;4988756;28;20084;-72
2022/03/31 08:52:43;;;;;;;25.92;13.18;;;11.70;99.90;;;;;;4987866;28;20398;-71
2022/03/31 08:55:12;;;;;;;27.38;12.75;;;11.80;99.90;;;;;;4991562;28;20088;-72
2022/03/31 08:57:48;;;;;;;28.17;14.40;;;11.60;99.90;;;;;;4987600;28;20694;-72
2022/03/31 09:00:18;;;;;;;30.23;13.82;;;11.60;99.90;;;;;;4988312;28;20064;-72
2022/03/31 09:03:03;;;;;;;24.98;13.88;;;11.50;99.90;;;;;;4984888;28;20116;-72
2022/03/31 09:05:52;;;;;;;26.08;12.73;;;11.60;99.90;;;;;;4988696;28;20053;-72
2022/03/31 09:08:20;;;;;;;26.70;11.90;;;11.50;99.90;;;;;;4980303;28;20049;-72
2022/03/31 09:10:49;;;;;;;25.95;12.27;;;11.50;99.90;;;;;;4977244;28;20752;-72
2022/03/31 09:13:31;;;;;;;27.13;12.80;;;11.50;99.90;;;;;;4988276;28;20045;-72
2022/03/31 09:16:03;;;;;;;28.07;13.40;;;11.40;99.90;;;;;;5005610;28;20056;-72
2022/03/31 09:18:33;;;;;;;25.50;13.25;;;11.40;99.90;;;;;;4982961;28;20045;-72
2022/03/31 09:21:03;;;;;;;21.13;12.35;;;11.40;99.90;;;;;;4970373;28;22070;-71
2022/03/31 09:23:38;;;;;;;25.73;13.80;;;11.40;99.90;;;;;;4974984;28;20084;-71
2022/03/31 09:26:12;;;;;;;26.60;13.35;;;11.40;99.90;;;;;;4987802;28;20056;-72
2022/03/31 09:28:41;;;;;;;28.30;14.45;;;11.40;99.90;;;;;;4970563;28;20053;-72
2022/03/31 09:31:12;;;;;;;34.60;15.85;;;11.40;99.90;;;;;;4984494;28;20045;-72
2022/03/31 09:33:48;;;;;;;29.45;14.85;;;11.50;99.90;;;;;;4984690;28;20540;-71
2022/03/31 09:36:17;;;;;;;27.23;13.40;;;11.50;99.90;;;;;;4987882;28;20119;-72
2022/03/31 09:38:52;;;;;;;25.15;12.77;;;11.50;99.90;;;;;;4978289;28;20084;-72
2022/03/31 09:41:23;;;;;;;28.25;14.48;;;11.50;99.90;;;;;;4987953;28;20700;-72
2022/03/31 09:43:53;;;;;;;24.33;12.95;;;11.60;99.90;;;;;;5002774;28;20057;-72
2022/03/31 09:46:27;;;;;;;30.65;14.10;;;11.60;99.90;;;;;;4985268;28;20045;-72
2022/03/31 09:49:08;;;;;;;31.10;15.07;;;11.40;99.90;;;;;;4991576;28;20089;-72
2022/03/31 09:51:36;;;;;;;29.60;14.88;;;11.50;99.90;;;;;;4983603;28;20110;-72
2022/03/31 09:54:04;;;;;;;32.17;14.35;;;11.50;99.90;;;;;;4999523;28;20120;-72
2022/03/31 09:56:38;;;;;;;33.17;15.90;;;11.50;99.90;;;;;;4984353;28;20807;-71
2022/03/31 09:59:14;;;;;;;30.10;14.98;;;11.40;99.90;;;;;;4985513;28;20049;-71
2022/03/31 10:01:51;;;;;;;30.77;15.30;;;11.50;99.90;;;;;;4977381;28;21002;-71
2022/03/31 10:04:20;;;;;;;30.38;14.95;;;11.40;99.90;;;;;;4985904;28;20048;-71
2022/03/31 10:06:53;;;;;;;26.80;12.52;;;11.40;99.90;;;;;;4979727;28;20042;-70
2022/03/31 10:09:22;;;;;;;25.75;12.80;;;11.30;99.90;;;;;;4979268;28;22261;-72
2022/03/31 10:12:12;;;;;;;25.00;12.48;;;11.30;99.90;;;;;;4982800;28;20045;-71
2022/03/31 10:15:01;;;;;;;26.38;14.60;;;11.30;99.90;;;;;;5003418;28;20068;-71
2022/03/31 10:17:29;;;;;;;29.67;14.15;;;11.30;99.90;;;;;;4986276;28;20056;-72
2022/03/31 10:20:14;;;;;;;29.38;12.73;;;11.20;99.90;;;;;;4987748;28;20776;-71
2022/03/31 10:25:49;;;;;;;31.17;14.18;;;11.30;99.90;;;;;;4988388;28;20100;-70
2022/03/31 10:28:24;;;;;;;26.33;13.45;;;11.30;99.90;;;;;;4981916;28;20466;-71
2022/03/31 10:31:01;;;;;;;27.77;15.13;;;11.40;99.90;;;;;;4987210;28;20052;-73
2022/03/31 10:33:34;;;;;;;26.77;14.07;;;11.50;99.90;;;;;;4984712;28;20662;-71
2022/03/31 10:36:05;;;;;;;25.88;14.18;;;11.50;99.90;;;;;;4987292;28;20040;-71
2022/03/31 10:38:38;;;;;;;26.42;13.40;;;11.50;99.90;;;;;;4989042;28;20954;-71
2022/03/31 10:41:19;;;;;;;29.40;14.38;;;11.60;99.90;;;;;;4990072;28;21860;-71
2022/03/31 10:43:47;;;;;;;28.60;13.98;;;11.60;99.90;;;;;;4988555;28;20134;-71
2022/03/31 10:46:20;;;;;;;27.73;12.90;;;11.50;99.90;;;;;;4992748;28;20079;-71
2022/03/31 10:48:55;;;;;;;27.75;14.07;;;11.60;99.90;;;;;;4983227;28;21963;-72
2022/03/31 10:51:41;;;;;;;32.70;13.70;;;11.60;99.90;;;;;;4975793;28;20044;-72
2022/03/31 10:54:12;;;;;;;24.58;12.25;;;11.50;99.90;;;;;;4994505;28;20470;-72
2022/03/31 10:56:40;;;;;;;25.60;13.27;;;11.50;99.90;;;;;;4983149;28;20067;-73
2022/03/31 10:59:07;;;;;;;27.00;14.68;;;11.50;99.90;;;;;;4990547;28;20184;-72
2022/03/31 11:01:37;;;;;;;27.73;13.90;;;11.50;99.90;;;;;;4989111;28;20042;-72
2022/03/31 11:04:07;;;;;;;28.65;14.38;;;11.40;99.90;;;;;;4989709;28;20056;-72
2022/03/31 11:06:45;;;;;;;29.17;13.93;;;11.40;99.90;;;;;;4991590;28;21534;-71
2022/03/31 11:09:29;;;;;;;25.85;13.63;;;11.40;99.90;;;;;;4991168;28;20045;-71
2022/03/31 11:11:59;;;;;;;33.88;15.00;;;11.40;99.90;;;;;;4987283;28;20202;-71
2022/03/31 11:14:27;;;;;;;29.42;14.95;;;11.50;99.90;;;;;;4992557;28;20045;-72
2022/03/31 11:16:54;;;;;;;26.17;14.18;;;11.50;99.90;;;;;;5005897;28;22382;-72
2022/03/31 11:19:21;;;;;;;31.10;13.70;;;11.60;99.90;;;;;;4975137;28;22119;-72
2022/03/31 11:21:49;;;;;;;29.88;13.77;;;11.60;99.90;;;;;;4984805;28;22156;-72
2022/03/31 11:24:23;;;;;;;25.58;14.27;;;11.60;99.90;;;;;;4990474;28;20849;-72
2022/03/31 11:26:53;;;;;;;25.15;13.73;;;11.60;99.90;;;;;;4988992;28;20048;-72
2022/03/31 11:29:24;;;;;;;26.83;13.52;;;11.70;99.90;;;;;;4986173;28;20068;-72
2022/03/31 11:31:53;;;;;;;26.80;12.50;;;11.70;99.90;;;;;;4983365;28;20048;-72
2022/03/31 11:34:27;;;;;;;27.48;13.13;;;11.60;99.90;;;;;;4990039;28;20041;-72
2022/03/31 11:37:00;;;;;;;22.23;11.55;;;11.60;99.90;;;;;;4990465;28;20118;-71
2022/03/31 11:39:29;;;;;;;20.17;11.40;;;11.50;99.90;;;;;;4990359;28;20056;-71
2022/03/31 11:41:58;;;;;;;23.58;11.30;;;11.50;99.90;;;;;;4986464;28;20083;-72
2022/03/31 11:44:29;;;;;;;96.75;69.18;;;11.50;99.90;;;;;;4996588;28;20057;-71
2022/03/31 11:46:57;;;;;;;30.73;19.92;;;11.50;99.90;;;;;;4989642;28;20072;-71
2022/03/31 11:49:26;;;;;;;28.17;16.17;;;11.40;99.90;;;;;;4990849;28;20059;-71
2022/03/31 11:51:55;;;;;;;29.50;16.30;;;11.50;99.90;;;;;;4970706;28;20720;-71
2022/03/31 11:54:24;;;;;;;27.95;14.48;;;11.60;99.90;;;;;;4990018;28;20071;-72
2022/03/31 11:57:21;;;;;;;33.45;14.88;;;11.50;99.90;;;;;;4987214;28;20116;-71
2022/03/31 11:59:48;;;;;;;25.73;13.90;;;11.50;99.90;;;;;;4988398;28;20782;-71
2022/03/31 12:02:17;;;;;;;25.00;13.77;;;11.50;99.90;;;;;;5002547;28;20057;-71
2022/03/31 12:04:46;;;;;;;24.60;13.93;;;11.60;99.90;;;;;;4988443;28;20791;-71
2022/03/31 12:07:16;;;;;;;24.35;15.07;;;11.50;99.90;;;;;;4984000;28;20430;-71
2022/03/31 12:09:43;;;;;;;24.17;13.60;;;11.50;99.90;;;;;;4994575;28;20056;-71
2022/03/31 12:12:14;;;;;;;25.73;14.50;;;11.50;99.90;;;;;;4984920;28;20053;-71
2022/03/31 12:14:57;;;;;;;29.65;15.38;;;11.40;99.90;;;;;;4986228;28;20224;-72
2022/03/31 12:17:24;;;;;;;26.63;15.07;;;11.40;99.90;;;;;;4988762;28;20057;-72
2022/03/31 12:19:51;;;;;;;26.10;15.20;;;11.40;99.90;;;;;;4979797;28;20810;-71
2022/03/31 12:22:33;;;;;;;30.20;18.08;;;11.40;99.90;;;;;;4985173;28;20720;-71
2022/03/31 12:25:01;;;;;;;32.00;17.85;;;11.50;99.90;;;;;;4985508;28;20052;-71
2022/03/31 12:27:28;;;;;;;25.48;14.35;;;11.40;99.90;;;;;;4985550;28;20041;-72
2022/03/31 12:30:04;;;;;;;24.65;14.23;;;11.40;99.90;;;;;;4987279;28;20083;-71
2022/03/31 12:32:33;;;;;;;22.95;13.80;;;11.30;99.90;;;;;;4986688;28;20526;-71
2022/03/31 12:35:02;;;;;;;26.65;14.30;;;11.30;99.90;;;;;;4984728;28;20223;-71
2022/03/31 12:37:37;;;;;;;27.10;12.98;;;11.40;99.90;;;;;;4988923;28;20146;-71
2022/03/31 12:40:13;;;;;;;30.20;15.55;;;11.40;99.90;;;;;;5000411;28;20164;-72
2022/03/31 12:42:57;;;;;;;28.90;14.95;;;11.30;99.90;;;;;;4982610;28;22271;-72
2022/03/31 12:45:28;;;;;;;26.55;13.73;;;11.50;99.90;;;;;;4983770;28;20138;-73
2022/03/31 12:47:55;;;;;;;27.05;14.65;;;11.50;99.90;;;;;;4982583;28;20189;-73